createdAt,value
2023-02-17T00:01:15.040Z,11.40
2023-02-17T00:03:48.189Z,11.40
2023-02-17T00:06:18.326Z,11.40
2023-02-17T00:08:47.190Z,11.40
2023-02-17T00:11:16.074Z,11.40
2023-02-17T00:13:44.529Z,11.40
2023-02-17T00:16:16.568Z,11.50
2023-02-17T00:18:46.736Z,11.50
2023-02-17T00:21:17.302Z,11.60
2023-02-17T00:23:46.626Z,11.50
2023-02-17T00:26:15.205Z,11.60
2023-02-17T00:28:45.062Z,11.60
2023-02-17T00:31:17.471Z,11.60
2023-02-17T00:33:47.758Z,11.60
2023-02-17T00:36:19.389Z,11.60
2023-02-17T00:38:49.034Z,11.60
2023-02-17T00:41:17.514Z,11.70
2023-02-17T00:43:45.915Z,11.70
2023-02-17T00:46:14.382Z,11.70
2023-02-17T00:48:42.905Z,11.70
2023-02-17T00:51:16.963Z,11.70
2023-02-17T00:53:46.297Z,11.70
2023-02-17T00:56:15.234Z,11.70
2023-02-17T00:58:46.243Z,11.70
2023-02-17T01:01:14.877Z,11.70
2023-02-17T01:03:44.739Z,11.80
2023-02-17T01:06:22.419Z,11.80
2023-02-17T01:08:50.834Z,11.70
2023-02-17T01:11:20.421Z,11.70
2023-02-17T01:13:48.837Z,11.70
2023-02-17T01:16:19.537Z,11.70
2023-02-17T01:18:48.002Z,11.70
2023-02-17T01:21:22.590Z,11.70
2023-02-17T01:23:51.559Z,11.70
2023-02-17T01:26:21.593Z,11.70
2023-02-17T01:28:51.076Z,11.60
2023-02-17T01:31:20.945Z,11.60
2023-02-17T01:33:49.786Z,11.60
2023-02-17T01:36:21.202Z,11.60
2023-02-17T01:38:49.900Z,11.60
2023-02-17T01:41:22.261Z,11.50
2023-02-17T01:44:08.990Z,11.50
2023-02-17T01:46:39.617Z,11.40
2023-02-17T01:49:31.776Z,11.40
2023-02-17T01:52:07.144Z,11.50
2023-02-17T01:54:41.342Z,11.50
2023-02-17T01:57:12.390Z,11.50
2023-02-17T01:59:43.378Z,11.40
2023-02-17T02:02:12.446Z,11.40
2023-02-17T02:04:46.470Z,11.40
2023-02-17T02:07:20.785Z,11.40
2023-02-17T02:09:53.134Z,11.40
2023-02-17T02:12:23.771Z,11.40
2023-02-17T02:14:53.269Z,11.40
2023-02-17T02:17:33.663Z,11.50
2023-02-17T02:20:30.675Z,11.50
2023-02-17T02:23:40.210Z,11.60
2023-02-17T02:26:39.665Z,11.60
2023-02-17T02:29:26.253Z,11.50
2023-02-17T02:32:07.658Z,11.50
2023-02-17T02:34:44.331Z,11.50
2023-02-17T02:37:18.002Z,11.50
2023-02-17T02:39:48.838Z,11.60
2023-02-17T02:42:20.583Z,11.60
2023-02-17T02:44:49.175Z,11.60
2023-02-17T02:47:48.931Z,11.70
2023-02-17T02:50:34.785Z,11.70
2023-02-17T02:53:43.097Z,11.60
2023-02-17T02:56:18.506Z,11.60
2023-02-17T02:58:54.991Z,11.70
2023-02-17T03:01:30.617Z,11.60
2023-02-17T03:04:08.403Z,11.70
2023-02-17T03:06:44.172Z,11.60
2023-02-17T03:09:16.502Z,11.60
2023-02-17T03:11:47.677Z,11.60
2023-02-17T03:14:18.039Z,11.60
2023-02-17T03:16:46.781Z,11.60
2023-02-17T03:19:16.413Z,11.50
2023-02-17T03:21:50.807Z,11.50
2023-02-17T03:24:20.114Z,11.50
2023-02-17T03:26:48.443Z,11.40
2023-02-17T03:29:16.703Z,11.40
2023-02-17T03:31:46.895Z,11.50
2023-02-17T03:34:15.270Z,11.50
2023-02-17T03:36:44.894Z,11.60
2023-02-17T03:39:13.245Z,11.60
2023-02-17T03:41:41.555Z,11.60
2023-02-17T03:44:09.925Z,11.60
2023-02-17T03:46:40.368Z,11.60
2023-02-17T03:49:08.676Z,11.50
2023-02-17T03:51:37.002Z,11.50
2023-02-17T03:54:07.257Z,11.40
2023-02-17T03:56:35.586Z,11.40
2023-02-17T03:59:04.170Z,11.30
2023-02-17T04:01:32.587Z,11.30
2023-02-17T04:04:00.927Z,11.30
2023-02-17T04:06:29.348Z,11.30
2023-02-17T04:08:57.656Z,11.30
2023-02-17T04:11:27.464Z,11.30
2023-02-17T04:13:55.932Z,11.40
2023-02-17T04:16:24.249Z,11.40
2023-02-17T04:18:52.609Z,11.40
2023-02-17T04:21:21.137Z,11.40
2023-02-17T04:23:49.531Z,11.50
2023-02-17T04:26:17.811Z,11.50
2023-02-17T04:28:47.633Z,11.60
2023-02-17T04:31:16.054Z,11.50
2023-02-17T04:33:44.430Z,11.50
2023-02-17T04:36:13.252Z,11.50
2023-02-17T04:38:41.652Z,11.50
2023-02-17T04:41:10.990Z,11.50
2023-02-17T04:43:39.292Z,11.60
2023-02-17T04:46:09.464Z,11.60
2023-02-17T04:48:38.020Z,11.60
2023-02-17T04:51:06.850Z,11.50
2023-02-17T04:53:35.204Z,11.60
2023-02-17T04:56:03.758Z,11.60
2023-02-17T04:58:32.974Z,11.70
2023-02-17T05:01:01.694Z,11.70
2023-02-17T05:03:31.445Z,11.60
2023-02-17T05:05:59.746Z,11.60
2023-02-17T05:08:28.024Z,11.50
2023-02-17T05:10:56.379Z,11.60
2023-02-17T05:13:24.617Z,11.60
2023-02-17T05:15:53.073Z,11.60
2023-02-17T05:18:21.391Z,11.50
2023-02-17T05:20:51.120Z,11.50
2023-02-17T05:23:19.432Z,11.50
2023-02-17T05:25:47.737Z,11.50
2023-02-17T05:28:16.111Z,11.50
2023-02-17T05:30:44.423Z,11.50
2023-02-17T05:33:12.818Z,11.40
2023-02-17T05:35:41.094Z,11.50
2023-02-17T05:38:10.805Z,11.50
2023-02-17T05:40:39.089Z,11.50
2023-02-17T05:43:07.382Z,11.50
2023-02-17T05:45:35.706Z,11.40
2023-02-17T05:48:04.049Z,11.50
2023-02-17T05:50:32.350Z,11.40
2023-02-17T05:53:04.381Z,11.40
2023-02-17T05:55:34.234Z,11.50
2023-02-17T05:58:02.548Z,11.40
2023-02-17T06:00:31.304Z,11.40
2023-02-17T06:02:59.745Z,11.40
2023-02-17T06:05:28.044Z,11.40
2023-02-17T06:07:56.452Z,11.40
2023-02-17T06:10:24.805Z,11.40
2023-02-17T06:12:54.507Z,11.40
2023-02-17T06:15:22.943Z,11.40
2023-02-17T06:17:51.265Z,11.40
2023-02-17T06:20:20.687Z,11.50
2023-02-17T06:22:48.973Z,11.50
2023-02-17T06:25:17.767Z,11.40
2023-02-17T06:27:46.093Z,11.40
2023-02-17T06:30:17.659Z,11.40
2023-02-17T06:32:46.009Z,11.40
2023-02-17T06:35:14.482Z,11.40
2023-02-17T06:37:42.952Z,11.40
2023-02-17T06:40:12.393Z,11.30
2023-02-17T06:42:40.652Z,11.40
2023-02-17T06:45:10.081Z,11.40
2023-02-17T06:47:39.793Z,11.30
2023-02-17T06:50:09.544Z,11.30
2023-02-17T06:52:37.925Z,11.30
2023-02-17T06:55:06.747Z,11.40
2023-02-17T06:57:35.120Z,11.40
2023-02-17T07:00:04.544Z,11.40
2023-02-17T07:02:32.982Z,11.40
2023-02-17T07:05:02.713Z,11.40
2023-02-17T07:07:31.108Z,11.40
2023-02-17T07:09:59.639Z,11.50
2023-02-17T07:12:29.570Z,11.40
2023-02-17T07:15:02.044Z,11.50
2023-02-17T07:17:32.156Z,11.50
2023-02-17T07:20:01.892Z,11.60
2023-02-17T07:22:30.284Z,11.60
2023-02-17T07:25:01.813Z,11.60
2023-02-17T07:27:30.239Z,11.60
2023-02-17T07:29:58.864Z,11.60
2023-02-17T07:32:27.298Z,11.70
2023-02-17T07:35:02.894Z,11.70
2023-02-17T07:37:31.702Z,11.70
2023-02-17T07:40:00.085Z,11.70
2023-02-17T07:42:28.807Z,11.70
2023-02-17T07:44:57.826Z,11.70
2023-02-17T07:47:26.134Z,11.60
2023-02-17T07:49:54.413Z,11.70
2023-02-17T07:52:24.265Z,11.80
2023-02-17T07:54:52.580Z,11.80
2023-02-17T07:57:21.082Z,11.80
2023-02-17T07:59:49.429Z,11.90
2023-02-17T08:02:17.886Z,11.90
2023-02-17T08:04:46.498Z,11.90
2023-02-17T08:07:15.081Z,12.00
2023-02-17T08:10:02.213Z,12.10
2023-02-17T08:12:47.751Z,12.00
2023-02-17T08:15:16.121Z,12.10
2023-02-17T08:17:44.760Z,12.10
2023-02-17T08:20:15.700Z,12.20
2023-02-17T08:22:43.989Z,12.30
2023-02-17T08:25:13.668Z,12.30
2023-02-17T08:27:42.074Z,12.30
2023-02-17T08:30:11.605Z,12.40
2023-02-17T08:32:40.145Z,12.40
2023-02-17T08:35:09.138Z,12.50
2023-02-17T08:37:37.456Z,12.60
2023-02-17T08:40:06.559Z,12.50
2023-02-17T08:42:36.252Z,12.60
2023-02-17T08:45:04.821Z,12.60
2023-02-17T08:47:33.261Z,12.60
2023-02-17T08:50:01.707Z,12.70
2023-02-17T08:52:30.162Z,12.70
2023-02-17T08:54:58.494Z,12.70
2023-02-17T08:57:26.860Z,12.80
2023-02-17T08:59:56.582Z,12.80
2023-02-17T09:02:24.947Z,12.80
2023-02-17T09:04:53.325Z,12.80
2023-02-17T09:07:21.827Z,13.00
2023-02-17T09:09:50.156Z,13.00
2023-02-17T09:12:18.507Z,13.00
2023-02-17T09:14:46.791Z,13.10
2023-02-17T09:17:16.588Z,13.20
2023-02-17T09:19:44.932Z,13.20
2023-02-17T09:22:29.778Z,13.20
2023-02-17T09:24:59.385Z,13.20
2023-02-17T09:27:27.875Z,13.30
2023-02-17T09:29:56.237Z,13.40
2023-02-17T09:32:26.125Z,13.50
2023-02-17T09:34:54.906Z,13.70
2023-02-17T09:37:23.577Z,13.80
2023-02-17T09:39:51.906Z,13.70
2023-02-17T09:42:22.496Z,13.90
2023-02-17T09:44:56.950Z,13.90
2023-02-17T09:47:32.283Z,13.90
2023-02-17T09:50:04.854Z,14.00
2023-02-17T09:52:38.800Z,14.10
2023-02-17T09:55:10.858Z,14.40
2023-02-17T09:57:45.587Z,14.50
2023-02-17T10:00:17.639Z,14.50
2023-02-17T10:02:56.224Z,14.50
2023-02-17T10:05:27.816Z,14.70
2023-02-17T10:08:01.786Z,15.00
2023-02-17T10:10:35.803Z,15.20
2023-02-17T10:13:07.294Z,15.30
2023-02-17T10:15:39.858Z,15.30
2023-02-17T10:18:16.677Z,15.50
2023-02-17T10:20:51.018Z,15.50
2023-02-17T10:23:22.400Z,15.60
2023-02-17T10:26:13.973Z,15.60
2023-02-17T10:28:51.466Z,15.50
2023-02-17T10:31:38.229Z,15.50
2023-02-17T10:34:17.730Z,15.40
2023-02-17T10:36:54.752Z,15.30
2023-02-17T10:39:36.457Z,15.20
2023-02-17T10:42:06.226Z,15.20
2023-02-17T10:44:39.213Z,15.20
2023-02-17T10:47:08.728Z,15.10
2023-02-17T10:49:43.369Z,15.10
2023-02-17T10:52:16.865Z,15.00
2023-02-17T10:54:51.728Z,15.00
2023-02-17T10:57:23.706Z,15.20
2023-02-17T10:59:53.386Z,15.10
2023-02-17T11:02:26.146Z,15.20
2023-02-17T11:04:56.014Z,15.20
2023-02-17T11:07:32.523Z,15.30
2023-02-17T11:10:03.700Z,15.20
2023-02-17T11:12:40.086Z,15.30
2023-02-17T11:15:18.465Z,15.40
2023-02-17T11:17:48.266Z,15.40
2023-02-17T11:20:36.015Z,15.40
2023-02-17T11:23:23.480Z,15.60
2023-02-17T11:26:04.719Z,15.80
2023-02-17T11:28:33.297Z,15.80
2023-02-17T11:31:04.850Z,15.80
2023-02-17T11:33:35.958Z,15.80
2023-02-17T11:36:07.834Z,15.80
2023-02-17T11:38:46.452Z,15.80
2023-02-17T11:41:15.015Z,15.80
2023-02-17T11:43:54.268Z,15.90
2023-02-17T11:46:34.819Z,16.00
2023-02-17T11:49:42.427Z,16.00
2023-02-17T11:52:24.474Z,15.80
2023-02-17T11:55:13.038Z,15.50
2023-02-17T11:57:45.474Z,15.40
2023-02-17T12:00:19.714Z,15.50
2023-02-17T12:03:24.225Z,15.50
2023-02-17T12:06:02.695Z,15.60
2023-02-17T12:08:41.576Z,15.40
2023-02-17T12:11:21.002Z,15.50
2023-02-17T12:14:01.080Z,15.60
2023-02-17T12:16:43.014Z,15.60
2023-02-17T12:19:26.718Z,15.80
2023-02-17T12:22:03.662Z,15.80
2023-02-17T12:24:52.047Z,15.80
2023-02-17T12:27:34.624Z,16.00
2023-02-17T12:30:15.813Z,16.00
2023-02-17T12:33:07.113Z,15.90
2023-02-17T12:35:44.179Z,16.00
2023-02-17T12:38:16.461Z,16.20
2023-02-17T12:40:51.627Z,16.30
2023-02-17T12:43:26.685Z,16.50
2023-02-17T12:45:58.041Z,16.60
2023-02-17T12:48:34.522Z,16.70
2023-02-17T12:51:08.222Z,16.70
2023-02-17T12:53:44.424Z,16.60
2023-02-17T12:56:56.328Z,16.50
2023-02-17T12:59:32.634Z,16.30
2023-02-17T13:02:03.244Z,16.10
2023-02-17T13:04:33.583Z,15.90
2023-02-17T13:07:14.642Z,15.80
2023-02-17T13:09:46.291Z,15.80
2023-02-17T13:12:34.021Z,15.80
2023-02-17T13:15:05.050Z,15.80
2023-02-17T13:17:35.619Z,15.90
2023-02-17T13:20:27.284Z,15.90
2023-02-17T13:23:07.743Z,15.90
2023-02-17T13:25:37.893Z,16.20
2023-02-17T13:28:32.466Z,16.40
2023-02-17T13:31:11.356Z,16.40
2023-02-17T13:33:46.447Z,16.40
2023-02-17T13:36:21.798Z,16.20
2023-02-17T13:39:01.431Z,16.10
2023-02-17T13:41:34.945Z,16.20
2023-02-17T13:44:29.985Z,16.20
2023-02-17T13:47:02.018Z,15.90
2023-02-17T13:49:35.188Z,15.90
2023-02-17T13:52:11.184Z,15.70
2023-02-17T13:54:41.935Z,15.70
2023-02-17T13:57:27.726Z,15.70
2023-02-17T14:00:09.559Z,15.60
2023-02-17T14:02:46.655Z,15.30
2023-02-17T14:05:20.132Z,15.30
2023-02-17T14:07:49.562Z,15.20
2023-02-17T14:10:20.679Z,15.10
2023-02-17T14:12:49.971Z,15.10
2023-02-17T14:15:21.743Z,15.10
2023-02-17T14:17:50.169Z,15.20
2023-02-17T14:20:33.812Z,15.20
2023-02-17T14:23:05.658Z,15.10
2023-02-17T14:25:36.758Z,15.10
2023-02-17T14:28:05.731Z,15.00
2023-02-17T14:30:37.579Z,15.10
2023-02-17T14:33:07.734Z,15.20
2023-02-17T14:35:39.371Z,15.20
2023-02-17T14:38:10.785Z,15.20
2023-02-17T14:40:40.295Z,15.30
2023-02-17T14:43:08.678Z,15.20
2023-02-17T14:45:38.446Z,15.20
2023-02-17T14:48:07.037Z,15.30
2023-02-17T14:50:42.130Z,15.30
2023-02-17T14:53:14.839Z,15.30
2023-02-17T14:55:47.818Z,15.30
2023-02-17T14:58:20.967Z,15.20
2023-02-17T15:00:51.694Z,15.10
2023-02-17T15:03:20.270Z,15.00
2023-02-17T15:05:48.678Z,15.10
2023-02-17T15:08:20.049Z,14.90
2023-02-17T15:10:49.030Z,14.80
2023-02-17T15:13:19.843Z,14.80
2023-02-17T15:15:49.980Z,14.70
2023-02-17T15:18:19.743Z,14.70
2023-02-17T15:20:50.632Z,14.70
2023-02-17T15:23:20.753Z,14.60
2023-02-17T15:25:50.009Z,14.50
2023-02-17T15:28:20.559Z,14.50
2023-02-17T15:30:52.823Z,14.40
2023-02-17T15:33:22.415Z,14.30
2023-02-17T15:35:53.975Z,14.10
2023-02-17T15:38:23.334Z,14.00
2023-02-17T15:40:52.051Z,14.00
2023-02-17T15:43:22.795Z,13.90
2023-02-17T15:45:52.488Z,13.90
2023-02-17T15:48:24.806Z,14.00
2023-02-17T15:50:53.918Z,14.00
2023-02-17T15:53:22.294Z,14.00
2023-02-17T15:55:51.171Z,13.80
2023-02-17T15:58:22.422Z,13.80
2023-02-17T16:00:52.444Z,13.70
2023-02-17T16:03:20.793Z,13.60
2023-02-17T16:05:49.087Z,13.40
2023-02-17T16:08:17.499Z,13.40
2023-02-17T16:10:47.107Z,13.30
2023-02-17T16:13:19.546Z,13.30
2023-02-17T16:15:49.231Z,13.20
2023-02-17T16:18:23.147Z,13.10
2023-02-17T16:20:51.895Z,13.10
2023-02-17T16:23:20.508Z,13.10
2023-02-17T16:25:50.134Z,13.00
2023-02-17T16:28:20.456Z,13.10
2023-02-17T16:30:49.678Z,13.00
2023-02-17T16:33:19.704Z,12.90
2023-02-17T16:35:50.772Z,12.90
2023-02-17T16:38:23.375Z,12.70
2023-02-17T16:40:54.752Z,12.70
2023-02-17T16:43:25.342Z,12.50
2023-02-17T16:45:56.477Z,12.50
2023-02-17T16:48:28.730Z,12.50
2023-02-17T16:50:57.539Z,12.50
2023-02-17T16:53:25.952Z,12.50
2023-02-17T16:55:56.218Z,12.50
2023-02-17T16:58:26.801Z,12.50
2023-02-17T17:00:57.928Z,12.40
2023-02-17T17:03:27.673Z,12.40
2023-02-17T17:05:56.750Z,12.40
2023-02-17T17:08:25.081Z,12.50
2023-02-17T17:10:53.403Z,12.30
2023-02-17T17:13:21.674Z,12.20
2023-02-17T17:15:50.254Z,12.10
2023-02-17T17:18:21.460Z,12.20
2023-02-17T17:20:51.258Z,12.10
2023-02-17T17:23:20.154Z,12.10
2023-02-17T17:25:48.930Z,12.00
2023-02-17T17:28:19.285Z,12.00
2023-02-17T17:30:47.640Z,12.00
2023-02-17T17:33:16.253Z,11.90
2023-02-17T17:35:44.817Z,11.90
2023-02-17T17:38:16.559Z,11.80
2023-02-17T17:40:53.418Z,11.80
2023-02-17T17:43:24.027Z,11.80
2023-02-17T17:45:53.048Z,11.80
2023-02-17T17:48:21.469Z,11.70
2023-02-17T17:50:50.329Z,11.60
2023-02-17T17:53:20.014Z,11.60
2023-02-17T17:55:49.063Z,11.60
2023-02-17T17:58:17.359Z,11.60
2023-02-17T18:00:45.707Z,11.50
2023-02-17T18:03:14.085Z,11.50
2023-02-17T18:05:42.643Z,11.50
2023-02-17T18:08:11.106Z,11.50
2023-02-17T18:10:41.909Z,11.50
2023-02-17T18:13:11.401Z,11.50
2023-02-17T18:15:40.825Z,11.60
2023-02-17T18:18:09.338Z,11.60
2023-02-17T18:20:37.684Z,11.60
2023-02-17T18:23:06.002Z,11.50
2023-02-17T18:25:34.401Z,11.40
2023-02-17T18:28:04.317Z,11.30
2023-02-17T18:30:32.790Z,11.20
2023-02-17T18:33:01.269Z,11.30
2023-02-17T18:35:29.635Z,11.30
2023-02-17T18:37:57.911Z,11.20
2023-02-17T18:40:29.100Z,11.20
2023-02-17T18:42:57.510Z,11.30
2023-02-17T18:45:27.780Z,11.30
2023-02-17T18:47:56.206Z,11.30
2023-02-17T18:50:25.954Z,11.30
2023-02-17T18:52:54.582Z,11.40
2023-02-17T18:55:22.886Z,11.30
2023-02-17T18:57:51.434Z,11.40
2023-02-17T19:00:20.171Z,11.40
2023-02-17T19:02:50.135Z,11.40
2023-02-17T19:05:18.575Z,11.50
2023-02-17T19:07:46.972Z,11.40
2023-02-17T19:10:15.679Z,11.50
2023-02-17T19:12:43.980Z,11.50
2023-02-17T19:15:13.909Z,11.50
2023-02-17T19:17:42.338Z,11.50
2023-02-17T19:20:13.217Z,11.50
2023-02-17T19:22:41.538Z,11.60
2023-02-17T19:25:10.476Z,11.50
2023-02-17T19:27:40.714Z,11.60
2023-02-17T19:30:10.301Z,11.60
2023-02-17T19:32:38.814Z,11.60
2023-02-17T19:35:09.030Z,11.60
2023-02-17T19:37:40.355Z,11.60
2023-02-17T19:40:09.859Z,11.60
2023-02-17T19:42:40.098Z,11.60
2023-02-17T19:45:09.003Z,11.60
2023-02-17T19:47:37.276Z,11.60
2023-02-17T19:50:06.395Z,11.60
2023-02-17T19:52:34.692Z,11.60
2023-02-17T19:55:04.995Z,11.60
2023-02-17T19:57:33.411Z,11.60
2023-02-17T20:00:01.734Z,11.70
2023-02-17T20:02:33.010Z,11.60
2023-02-17T20:05:01.413Z,11.70
2023-02-17T20:07:30.200Z,11.60
2023-02-17T20:09:58.885Z,11.60
2023-02-17T20:12:28.680Z,11.60
2023-02-17T20:14:57.584Z,11.60
2023-02-17T20:17:25.839Z,11.60
2023-02-17T20:19:54.228Z,11.60
2023-02-17T20:22:22.508Z,11.60
2023-02-17T20:24:50.844Z,11.50
2023-02-17T20:27:19.139Z,11.60
2023-02-17T20:29:48.853Z,11.50
2023-02-17T20:32:17.319Z,11.50
2023-02-17T20:34:45.781Z,11.40
2023-02-17T20:37:14.109Z,11.50
2023-02-17T20:39:42.386Z,11.40
2023-02-17T20:42:10.946Z,11.50
2023-02-17T20:44:39.300Z,11.50
2023-02-17T20:47:09.041Z,11.50
2023-02-17T20:49:37.442Z,11.30
2023-02-17T20:52:06.506Z,11.40
2023-02-17T20:54:34.824Z,11.40
2023-02-17T20:57:04.220Z,11.40
2023-02-17T20:59:32.623Z,11.40
2023-02-17T21:02:00.897Z,11.40
2023-02-17T21:04:30.651Z,11.40
2023-02-17T21:07:01.077Z,11.50
2023-02-17T21:09:30.480Z,11.50
2023-02-17T21:11:58.791Z,11.50
2023-02-17T21:14:27.120Z,11.60
2023-02-17T21:16:55.495Z,11.50
2023-02-17T21:19:23.815Z,11.60
2023-02-17T21:21:53.492Z,11.60
2023-02-17T21:24:21.904Z,11.60
2023-02-17T21:26:50.189Z,11.40
2023-02-17T21:29:18.539Z,11.50
2023-02-17T21:31:46.881Z,11.50
2023-02-17T21:34:15.189Z,11.60
2023-02-17T21:36:43.466Z,11.60
2023-02-17T21:39:13.198Z,11.60
2023-02-17T21:41:42.725Z,11.60
2023-02-17T21:44:30.761Z,11.60
2023-02-17T21:46:59.082Z,11.60
2023-02-17T21:49:27.501Z,11.60
2023-02-17T21:51:55.924Z,11.60
2023-02-17T21:54:25.599Z,11.50
2023-02-17T21:56:53.993Z,11.50
2023-02-17T21:59:22.372Z,11.50
2023-02-17T22:01:51.892Z,11.50
2023-02-17T22:04:20.714Z,11.50
2023-02-17T22:06:49.307Z,11.60
2023-02-17T22:09:18.156Z,11.60
2023-02-17T22:11:49.559Z,11.60
2023-02-17T22:14:19.586Z,11.60
2023-02-17T22:16:49.148Z,11.60
2023-02-17T22:19:20.575Z,11.60
2023-02-17T22:21:49.847Z,11.60
2023-02-17T22:24:20.607Z,11.50
2023-02-17T22:26:51.377Z,11.50
2023-02-17T22:29:19.797Z,11.60
2023-02-17T22:31:50.270Z,11.50
2023-02-17T22:34:18.771Z,11.60
2023-02-17T22:36:47.021Z,11.50
2023-02-17T22:39:15.463Z,11.40
2023-02-17T22:41:43.761Z,11.30
2023-02-17T22:44:13.531Z,11.30
2023-02-17T22:46:41.886Z,11.40
2023-02-17T22:49:10.425Z,11.40
2023-02-17T22:51:40.143Z,11.40
2023-02-17T22:54:09.673Z,11.40
2023-02-17T22:56:38.118Z,11.40
2023-02-17T22:59:06.998Z,11.40
2023-02-17T23:01:38.205Z,11.30
2023-02-17T23:04:06.940Z,11.30
2023-02-17T23:06:36.943Z,11.40
2023-02-17T23:09:06.216Z,11.40
2023-02-17T23:11:52.354Z,11.30
2023-02-17T23:14:23.216Z,11.30
2023-02-17T23:16:54.370Z,11.30
2023-02-17T23:19:24.588Z,11.30
2023-02-17T23:21:56.135Z,11.30
2023-02-17T23:24:25.605Z,11.30
2023-02-17T23:26:54.868Z,11.30
2023-02-17T23:29:23.811Z,11.40
2023-02-17T23:31:53.539Z,11.40
2023-02-17T23:34:22.271Z,11.40
2023-02-17T23:36:50.926Z,11.40
2023-02-17T23:39:19.242Z,11.40
2023-02-17T23:41:47.568Z,11.40
2023-02-17T23:44:16.783Z,11.40
2023-02-17T23:46:46.988Z,11.40
2023-02-17T23:49:18.112Z,11.30
2023-02-17T23:51:47.882Z,11.30
2023-02-17T23:54:16.732Z,11.30
2023-02-17T23:56:45.366Z,11.30
2023-02-17T23:59:15.380Z,11.30
